createdAt,value
2023-05-24T00:02:14.213Z,16.12
2023-05-24T00:04:45.344Z,16.11
2023-05-24T00:07:14.600Z,16.11
2023-05-24T00:09:43.760Z,16.14
2023-05-24T00:12:12.908Z,16.13
2023-05-24T00:14:42.061Z,16.10
2023-05-24T00:17:12.881Z,16.11
2023-05-24T00:19:42.939Z,16.13
2023-05-24T00:22:14.124Z,16.16
2023-05-24T00:24:43.288Z,16.17
2023-05-24T00:27:12.587Z,16.19
2023-05-24T00:29:41.807Z,16.21
2023-05-24T00:32:11.035Z,16.20
2023-05-24T00:34:40.497Z,16.19
2023-05-24T00:37:09.610Z,16.19
2023-05-24T00:39:38.737Z,16.21
2023-05-24T00:42:07.929Z,16.22
2023-05-24T00:44:37.067Z,16.21
2023-05-24T00:47:06.445Z,16.21
2023-05-24T00:49:37.201Z,16.22
2023-05-24T00:52:07.244Z,16.22
2023-05-24T00:54:36.431Z,16.23
2023-05-24T00:57:05.993Z,16.21
2023-05-24T00:59:36.121Z,16.21
2023-05-24T01:02:07.222Z,16.19
2023-05-24T01:04:38.211Z,16.17
2023-05-24T01:07:27.149Z,16.14
2023-05-24T01:10:11.695Z,16.17
2023-05-24T01:12:57.229Z,16.16
2023-05-24T01:15:35.626Z,16.15
2023-05-24T01:18:05.211Z,16.14
2023-05-24T01:20:38.562Z,16.12
2023-05-24T01:23:22.453Z,16.06
2023-05-24T01:25:51.538Z,16.08
2023-05-24T01:28:22.326Z,16.08
2023-05-24T01:30:56.087Z,16.06
2023-05-24T01:33:26.051Z,16.02
2023-05-24T01:35:55.384Z,16.01
2023-05-24T01:38:24.487Z,15.96
2023-05-24T01:41:05.721Z,15.95
2023-05-24T01:43:43.314Z,15.95
2023-05-24T01:46:39.036Z,15.96
2023-05-24T01:49:31.627Z,15.95
2023-05-24T01:52:05.438Z,15.91
2023-05-24T01:54:39.005Z,15.95
2023-05-24T01:57:10.314Z,15.94
2023-05-24T01:59:43.658Z,15.94
2023-05-24T02:02:12.879Z,15.95
2023-05-24T02:04:42.764Z,15.95
2023-05-24T02:07:12.179Z,15.95
2023-05-24T02:09:41.350Z,15.95
2023-05-24T02:12:11.050Z,15.98
2023-05-24T02:14:42.886Z,15.98
2023-05-24T02:17:12.258Z,16.01
2023-05-24T02:19:41.370Z,16.01
2023-05-24T02:22:10.553Z,16.05
2023-05-24T02:24:40.510Z,16.04
2023-05-24T02:27:09.711Z,16.07
2023-05-24T02:29:38.944Z,16.05
2023-05-24T02:32:08.075Z,16.05
2023-05-24T02:34:37.218Z,16.05
2023-05-24T02:37:06.405Z,16.05
2023-05-24T02:39:35.955Z,16.08
2023-05-24T02:42:06.001Z,16.02
2023-05-24T02:44:35.752Z,15.98
2023-05-24T02:47:05.518Z,16.02
2023-05-24T02:49:34.644Z,16.04
2023-05-24T02:52:03.893Z,16.07
2023-05-24T02:54:32.985Z,16.07
2023-05-24T02:57:02.872Z,16.10
2023-05-24T02:59:33.506Z,16.13
2023-05-24T03:02:02.928Z,16.14
2023-05-24T03:04:32.084Z,16.08
2023-05-24T03:07:01.496Z,16.07
2023-05-24T03:09:30.688Z,16.09
2023-05-24T03:11:59.754Z,16.11
2023-05-24T03:14:28.918Z,16.18
2023-05-24T03:16:58.182Z,16.21
2023-05-24T03:19:27.541Z,16.16
2023-05-24T03:21:57.490Z,16.11
2023-05-24T03:24:26.997Z,16.13
2023-05-24T03:26:56.155Z,16.20
2023-05-24T03:29:25.334Z,16.22
2023-05-24T03:31:56.031Z,16.27
2023-05-24T03:34:25.399Z,16.29
2023-05-24T03:36:54.616Z,16.26
2023-05-24T03:39:23.752Z,16.30
2023-05-24T03:42:22.691Z,16.35
2023-05-24T03:44:54.388Z,16.38
2023-05-24T03:47:23.541Z,16.38
2023-05-24T03:49:52.672Z,16.39
2023-05-24T03:52:21.819Z,16.40
2023-05-24T03:54:51.077Z,16.42
2023-05-24T03:57:20.154Z,16.42
2023-05-24T03:59:49.501Z,16.44
2023-05-24T04:02:18.787Z,16.52
2023-05-24T04:04:47.932Z,16.58
2023-05-24T04:07:17.084Z,16.64
2023-05-24T04:09:46.249Z,16.64
2023-05-24T04:12:15.376Z,16.65
2023-05-24T04:14:44.808Z,16.66
2023-05-24T04:17:15.585Z,16.75
2023-05-24T04:19:46.898Z,16.78
2023-05-24T04:22:16.188Z,16.84
2023-05-24T04:24:46.100Z,16.96
2023-05-24T04:27:15.352Z,17.09
2023-05-24T04:29:46.032Z,17.17
2023-05-24T04:32:15.482Z,17.26
2023-05-24T04:34:46.183Z,17.34
2023-05-24T04:37:17.320Z,17.44
2023-05-24T04:39:48.380Z,17.52
2023-05-24T04:42:17.655Z,17.57
2023-05-24T04:44:47.038Z,17.69
2023-05-24T04:47:16.405Z,17.79
2023-05-24T04:49:45.468Z,17.90
2023-05-24T04:52:15.068Z,18.05
2023-05-24T04:54:44.269Z,18.29
2023-05-24T04:57:13.428Z,18.51
2023-05-24T04:59:42.738Z,18.72
2023-05-24T05:02:12.137Z,18.98
2023-05-24T05:04:41.319Z,19.19
2023-05-24T05:07:10.403Z,19.22
2023-05-24T05:09:42.330Z,19.19
2023-05-24T05:12:11.574Z,19.08
2023-05-24T05:14:40.767Z,18.93
2023-05-24T05:17:09.925Z,18.81
2023-05-24T05:19:39.252Z,18.66
2023-05-24T05:22:08.439Z,18.52
2023-05-24T05:24:37.677Z,18.43
2023-05-24T05:27:06.825Z,18.40
2023-05-24T05:29:35.928Z,18.40
2023-05-24T05:32:05.469Z,18.33
2023-05-24T05:34:34.568Z,18.29
2023-05-24T05:38:50.530Z,18.35
2023-05-24T05:41:19.684Z,18.52
2023-05-24T05:43:48.892Z,18.72
2023-05-24T05:46:19.663Z,18.95
2023-05-24T05:48:49.330Z,19.25
2023-05-24T05:51:18.483Z,19.58
2023-05-24T05:53:47.596Z,19.79
2023-05-24T05:56:16.693Z,19.76
2023-05-24T05:58:45.829Z,19.78
2023-05-24T06:01:16.128Z,19.67
2023-05-24T06:03:45.613Z,19.49
2023-05-24T06:06:14.848Z,19.38
2023-05-24T06:08:43.928Z,19.38
2023-05-24T06:11:13.121Z,19.46
2023-05-24T06:13:42.308Z,19.69
2023-05-24T06:16:11.574Z,20.08
2023-05-24T06:18:47.416Z,20.39
2023-05-24T06:21:22.890Z,20.33
2023-05-24T06:23:52.059Z,20.26
2023-05-24T06:26:22.405Z,20.31
2023-05-24T06:28:51.710Z,20.43
2023-05-24T06:31:20.873Z,20.29
2023-05-24T06:34:02.530Z,20.29
2023-05-24T06:36:36.149Z,20.29
2023-05-24T06:39:05.454Z,20.22
2023-05-24T06:41:35.357Z,20.12
2023-05-24T06:44:04.646Z,20.10
2023-05-24T06:46:34.491Z,20.13
2023-05-24T06:49:03.891Z,20.22
2023-05-24T06:51:36.897Z,20.34
2023-05-24T06:54:06.762Z,20.50
2023-05-24T06:56:36.431Z,20.61
2023-05-24T06:59:06.030Z,20.71
2023-05-24T07:01:39.636Z,20.82
2023-05-24T07:04:09.854Z,20.94
2023-05-24T07:06:39.487Z,21.13
2023-05-24T07:09:10.386Z,21.23
2023-05-24T07:11:40.909Z,21.29
2023-05-24T07:14:10.352Z,21.33
2023-05-24T07:16:39.452Z,21.27
2023-05-24T07:19:08.608Z,21.25
2023-05-24T07:21:38.053Z,21.39
2023-05-24T07:24:07.290Z,21.37
2023-05-24T07:26:36.765Z,21.43
2023-05-24T07:29:05.849Z,21.60
2023-05-24T07:31:35.505Z,21.77
2023-05-24T07:34:04.649Z,21.97
2023-05-24T07:36:34.982Z,22.15
2023-05-24T07:39:06.338Z,22.28
2023-05-24T07:41:36.467Z,22.39
2023-05-24T07:44:05.875Z,22.47
2023-05-24T07:46:35.286Z,22.59
2023-05-24T07:49:04.474Z,22.77
2023-05-24T07:51:34.056Z,22.90
2023-05-24T07:54:03.379Z,23.07
2023-05-24T07:56:32.942Z,23.22
2023-05-24T07:59:04.887Z,23.52
2023-05-24T08:01:35.329Z,23.84
2023-05-24T08:04:04.555Z,24.12
2023-05-24T08:06:35.004Z,24.17
2023-05-24T08:09:05.318Z,24.21
2023-05-24T08:11:34.398Z,24.23
2023-05-24T08:14:03.739Z,24.25
2023-05-24T08:16:33.025Z,24.31
2023-05-24T08:19:02.262Z,24.24
2023-05-24T08:21:31.934Z,24.06
2023-05-24T08:24:01.144Z,23.77
2023-05-24T08:26:30.284Z,23.83
2023-05-24T08:28:59.486Z,24.02
2023-05-24T08:31:28.612Z,23.93
2023-05-24T08:33:58.334Z,23.86
2023-05-24T08:36:27.427Z,23.96
2023-05-24T08:38:56.841Z,24.29
2023-05-24T08:41:27.453Z,24.24
2023-05-24T08:44:00.385Z,24.14
2023-05-24T08:46:30.178Z,24.12
2023-05-24T08:49:00.239Z,23.91
2023-05-24T08:51:30.478Z,23.99
2023-05-24T08:54:01.385Z,24.26
2023-05-24T08:56:31.091Z,24.44
2023-05-24T08:59:00.237Z,24.31
2023-05-24T09:01:31.804Z,24.49
2023-05-24T09:04:03.306Z,24.80
2023-05-24T09:06:32.938Z,25.01
2023-05-24T09:09:03.426Z,25.15
2023-05-24T09:11:33.966Z,25.27
2023-05-24T09:14:03.308Z,25.19
2023-05-24T09:16:32.841Z,25.02
2023-05-24T09:19:02.422Z,25.06
2023-05-24T09:21:32.799Z,25.24
2023-05-24T09:24:02.141Z,25.50
2023-05-24T09:26:31.926Z,25.58
2023-05-24T09:29:01.116Z,25.62
2023-05-24T09:31:34.657Z,25.61
2023-05-24T09:34:04.060Z,25.75
2023-05-24T09:36:33.212Z,26.19
2023-05-24T09:39:12.228Z,26.63
2023-05-24T09:41:43.646Z,27.00
2023-05-24T09:44:15.182Z,27.18
2023-05-24T09:46:45.965Z,27.06
2023-05-24T09:49:15.152Z,26.76
2023-05-24T09:51:44.515Z,26.46
2023-05-24T09:54:15.077Z,26.16
2023-05-24T09:56:46.497Z,25.77
2023-05-24T09:59:15.605Z,25.28
2023-05-24T10:01:45.341Z,25.06
2023-05-24T10:04:14.643Z,24.96
2023-05-24T10:06:44.410Z,24.98
2023-05-24T10:09:14.496Z,25.00
2023-05-24T10:11:43.799Z,25.09
2023-05-24T10:14:13.030Z,25.31
2023-05-24T10:16:42.519Z,25.31
2023-05-24T10:19:12.001Z,25.21
2023-05-24T10:21:42.740Z,25.42
2023-05-24T10:24:13.719Z,25.75
2023-05-24T10:26:43.393Z,25.92
2023-05-24T10:29:24.553Z,25.97
2023-05-24T10:31:54.624Z,26.11
2023-05-24T10:34:24.070Z,26.17
2023-05-24T10:36:53.471Z,25.98
2023-05-24T10:39:22.902Z,25.79
2023-05-24T10:41:52.133Z,25.79
2023-05-24T10:44:22.243Z,25.65
2023-05-24T10:47:10.547Z,25.72
2023-05-24T10:49:52.866Z,25.88
2023-05-24T10:52:22.197Z,25.97
2023-05-24T10:55:09.677Z,26.00
2023-05-24T10:57:40.248Z,25.98
2023-05-24T11:00:35.317Z,26.04
2023-05-24T11:03:09.647Z,26.16
2023-05-24T11:05:48.773Z,26.25
2023-05-24T11:08:31.943Z,26.40
2023-05-24T11:13:46.167Z,26.83
2023-05-24T11:16:39.448Z,27.00
2023-05-24T11:19:37.389Z,27.23
2023-05-24T11:22:08.803Z,27.52
2023-05-24T11:24:38.390Z,27.72
2023-05-24T11:27:08.161Z,27.91
2023-05-24T11:29:41.669Z,28.02
2023-05-24T11:32:15.846Z,28.13
2023-05-24T11:34:48.933Z,28.23
2023-05-24T11:37:18.803Z,28.34
2023-05-24T11:39:54.413Z,28.19
2023-05-24T11:42:23.767Z,28.04
2023-05-24T11:44:53.676Z,27.98
2023-05-24T11:47:23.630Z,27.71
2023-05-24T11:49:52.979Z,27.54
2023-05-24T11:52:22.840Z,27.49
2023-05-24T11:54:52.357Z,27.46
2023-05-24T11:57:30.596Z,27.45
2023-05-24T11:59:59.725Z,27.44
2023-05-24T12:02:30.404Z,27.30
2023-05-24T12:05:09.782Z,27.18
2023-05-24T12:07:40.827Z,26.84
2023-05-24T12:10:12.306Z,26.61
2023-05-24T12:12:47.798Z,26.44
2023-05-24T12:15:18.586Z,26.34
2023-05-24T12:17:50.363Z,26.44
2023-05-24T12:20:20.505Z,26.47
2023-05-24T12:22:53.857Z,26.44
2023-05-24T12:25:27.072Z,26.27
2023-05-24T12:27:56.909Z,26.10
2023-05-24T12:30:27.248Z,26.03
2023-05-24T12:32:57.420Z,26.42
2023-05-24T12:35:26.530Z,28.86
2023-05-24T12:38:00.214Z,30.84
2023-05-24T12:40:33.559Z,32.73
2023-05-24T12:43:04.873Z,33.29
2023-05-24T12:45:34.784Z,32.80
2023-05-24T12:48:05.235Z,32.98
2023-05-24T12:50:34.979Z,33.82
2023-05-24T12:53:04.377Z,33.98
2023-05-24T12:55:33.514Z,35.93
2023-05-24T12:58:06.327Z,37.50
2023-05-24T13:00:35.656Z,37.52
2023-05-24T13:03:07.088Z,35.28
2023-05-24T13:05:36.420Z,32.95
2023-05-24T13:08:05.646Z,31.89
2023-05-24T13:10:34.881Z,34.37
2023-05-24T13:13:04.050Z,37.23
2023-05-24T13:15:33.229Z,38.84
2023-05-24T13:18:02.451Z,38.49
2023-05-24T13:20:31.737Z,39.56
2023-05-24T13:23:00.923Z,41.33
2023-05-24T13:25:30.197Z,43.07
2023-05-24T13:28:00.055Z,44.48
2023-05-24T13:30:29.226Z,44.51
2023-05-24T13:32:59.601Z,43.76
2023-05-24T13:35:29.738Z,44.58
2023-05-24T13:37:58.952Z,44.92
2023-05-24T13:40:28.637Z,45.85
2023-05-24T13:42:58.070Z,46.33
2023-05-24T13:45:27.640Z,46.10
2023-05-24T13:48:03.721Z,46.06
2023-05-24T13:50:34.305Z,45.77
2023-05-24T13:53:04.514Z,45.98
2023-05-24T13:55:36.096Z,43.82
2023-05-24T13:58:05.301Z,41.36
2023-05-24T14:00:36.297Z,39.64
2023-05-24T14:03:06.450Z,39.51
2023-05-24T14:05:36.016Z,40.04
2023-05-24T14:08:06.942Z,38.31
2023-05-24T14:10:37.324Z,36.99
2023-05-24T14:15:39.276Z,40.18
2023-05-24T14:18:08.940Z,40.62
2023-05-24T14:20:40.175Z,39.90
2023-05-24T14:23:10.173Z,39.92
2023-05-24T14:25:39.609Z,40.58
2023-05-24T14:28:08.949Z,42.47
2023-05-24T14:30:38.369Z,44.24
2023-05-24T14:33:08.590Z,43.55
2023-05-24T14:35:39.883Z,39.67
2023-05-24T14:38:10.919Z,36.18
2023-05-24T14:40:40.956Z,33.58
2023-05-24T14:43:10.943Z,31.62
2023-05-24T14:45:42.348Z,30.28
2023-05-24T14:48:12.654Z,28.91
2023-05-24T14:50:42.512Z,27.94
2023-05-24T14:53:14.869Z,27.10
2023-05-24T14:55:44.655Z,26.37
2023-05-24T14:58:14.411Z,25.63
2023-05-24T15:00:43.947Z,24.96
2023-05-24T15:03:14.762Z,24.51
2023-05-24T15:05:44.197Z,24.13
2023-05-24T15:08:13.686Z,23.70
2023-05-24T15:10:45.302Z,23.43
2023-05-24T15:13:14.760Z,23.27
2023-05-24T15:15:44.396Z,23.17
2023-05-24T15:18:13.695Z,23.14
2023-05-24T15:20:43.411Z,23.25
2023-05-24T15:23:13.376Z,23.41
2023-05-24T15:25:43.109Z,23.50
2023-05-24T15:28:14.624Z,23.97
2023-05-24T15:30:46.133Z,25.14
2023-05-24T15:33:17.034Z,25.02
2023-05-24T15:35:46.474Z,24.65
2023-05-24T15:38:17.678Z,24.17
2023-05-24T15:40:47.185Z,23.70
2023-05-24T15:43:18.735Z,23.38
2023-05-24T15:45:48.465Z,23.14
2023-05-24T15:48:17.628Z,22.92
2023-05-24T15:53:21.064Z,22.50
2023-05-24T15:55:51.659Z,22.30
2023-05-24T15:58:20.867Z,22.12
2023-05-24T16:00:51.103Z,21.97
2023-05-24T16:03:20.471Z,21.84
2023-05-24T16:05:50.572Z,21.69
2023-05-24T16:08:19.783Z,21.55
2023-05-24T16:10:49.352Z,21.39
2023-05-24T16:13:18.460Z,21.17
2023-05-24T16:15:51.694Z,21.00
2023-05-24T16:18:23.134Z,20.86
2023-05-24T16:20:52.956Z,20.78
2023-05-24T16:23:23.356Z,20.66
2023-05-24T16:25:52.573Z,20.49
2023-05-24T16:28:24.398Z,20.36
2023-05-24T16:30:57.414Z,20.16
2023-05-24T16:33:26.620Z,19.86
2023-05-24T16:35:55.951Z,19.72
2023-05-24T16:38:26.128Z,19.71
2023-05-24T16:40:55.395Z,19.66
2023-05-24T16:43:24.542Z,19.64
2023-05-24T16:45:55.225Z,19.59
2023-05-24T16:48:28.631Z,19.53
2023-05-24T16:50:58.417Z,19.49
2023-05-24T16:53:27.635Z,19.44
2023-05-24T16:55:58.028Z,19.41
2023-05-24T16:58:28.867Z,19.35
2023-05-24T17:00:58.736Z,19.35
2023-05-24T17:03:29.042Z,19.31
2023-05-24T17:06:03.527Z,19.30
2023-05-24T17:08:35.640Z,19.23
2023-05-24T17:11:05.546Z,19.22
2023-05-24T17:13:34.750Z,19.23
2023-05-24T17:16:04.321Z,19.22
2023-05-24T17:18:34.015Z,19.20
2023-05-24T17:21:04.898Z,19.14
2023-05-24T17:23:37.286Z,19.16
2023-05-24T17:26:08.324Z,19.21
2023-05-24T17:28:37.554Z,19.25
2023-05-24T17:31:07.994Z,19.30
2023-05-24T17:33:37.222Z,19.34
2023-05-24T17:36:06.605Z,19.40
2023-05-24T17:38:39.537Z,19.38
2023-05-24T17:41:09.912Z,19.35
2023-05-24T17:43:40.521Z,19.37
2023-05-24T17:46:10.090Z,19.36
2023-05-24T17:48:40.135Z,19.34
2023-05-24T17:51:10.473Z,19.32
2023-05-24T17:53:43.181Z,19.29
2023-05-24T17:56:13.133Z,19.22
2023-05-24T17:58:42.318Z,19.16
2023-05-24T18:01:12.155Z,19.13
2023-05-24T18:03:41.753Z,19.05
2023-05-24T18:06:11.096Z,19.01
2023-05-24T18:08:43.642Z,19.02
2023-05-24T18:11:14.013Z,19.00
2023-05-24T18:13:43.549Z,18.96
2023-05-24T18:16:13.331Z,18.92
2023-05-24T18:18:44.232Z,18.88
2023-05-24T18:21:13.606Z,18.80
2023-05-24T18:23:42.812Z,18.78
2023-05-24T18:26:12.269Z,18.74
2023-05-24T18:28:42.257Z,18.69
2023-05-24T18:31:11.834Z,18.62
2023-05-24T18:33:42.130Z,18.58
2023-05-24T18:36:12.764Z,18.55
2023-05-24T18:38:42.727Z,18.52
2023-05-24T18:41:12.299Z,18.47
2023-05-24T18:43:43.030Z,18.37
2023-05-24T18:46:13.905Z,18.34
2023-05-24T18:48:43.598Z,18.32
2023-05-24T18:51:12.990Z,18.31
2023-05-24T18:53:42.201Z,18.25
2023-05-24T18:56:11.364Z,18.25
2023-05-24T18:58:41.428Z,18.26
2023-05-24T19:01:10.803Z,18.22
2023-05-24T19:03:41.778Z,18.16
2023-05-24T19:06:11.020Z,18.10
2023-05-24T19:08:40.297Z,18.06
2023-05-24T19:11:11.287Z,18.00
2023-05-24T19:13:41.567Z,17.93
2023-05-24T19:16:17.524Z,17.94
2023-05-24T19:18:47.214Z,17.95
2023-05-24T19:21:16.551Z,17.94
2023-05-24T19:23:45.871Z,17.90
2023-05-24T19:26:18.097Z,17.84
2023-05-24T19:28:56.049Z,17.83
2023-05-24T19:31:25.758Z,17.78
2023-05-24T19:34:00.447Z,17.79
2023-05-24T19:36:32.982Z,17.74
2023-05-24T19:39:02.598Z,17.65
2023-05-24T19:41:31.833Z,17.56
2023-05-24T19:44:01.100Z,17.50
2023-05-24T19:46:30.511Z,17.43
2023-05-24T19:48:59.953Z,17.41
2023-05-24T19:51:29.416Z,17.37
2023-05-24T19:53:58.573Z,17.36
2023-05-24T19:56:27.841Z,17.34
2023-05-24T19:58:57.036Z,17.35
2023-05-24T20:01:26.345Z,17.36
2023-05-24T20:03:55.656Z,17.37
2023-05-24T20:06:24.834Z,17.38
2023-05-24T20:08:55.708Z,17.39
2023-05-24T20:11:25.126Z,17.34
2023-05-24T20:13:55.950Z,17.29
2023-05-24T20:16:25.772Z,17.22
2023-05-24T20:18:54.908Z,17.15
2023-05-24T20:21:24.116Z,17.05
2023-05-24T20:23:58.624Z,17.01
2023-05-24T20:26:28.262Z,16.92
2023-05-24T20:28:57.387Z,16.87
2023-05-24T20:31:26.554Z,16.86
2023-05-24T20:33:55.775Z,16.80
2023-05-24T20:36:24.975Z,16.78
2023-05-24T20:38:54.124Z,16.73
2023-05-24T20:41:23.441Z,16.65
2023-05-24T20:43:52.618Z,16.65
2023-05-24T20:46:22.813Z,16.71
2023-05-24T20:48:53.668Z,16.76
2023-05-24T20:51:23.205Z,16.77
2023-05-24T20:53:53.329Z,16.82
2023-05-24T20:56:23.276Z,16.90
2023-05-24T20:58:54.336Z,16.96
2023-05-24T21:01:24.120Z,16.98
2023-05-24T21:03:53.373Z,16.96
2023-05-24T21:06:23.210Z,16.95
2023-05-24T21:08:52.325Z,16.95
2023-05-24T21:11:21.639Z,16.97
2023-05-24T21:13:51.298Z,17.00
2023-05-24T21:16:20.426Z,17.01
2023-05-24T21:18:51.098Z,17.00
2023-05-24T21:21:20.523Z,17.04
2023-05-24T21:23:49.702Z,17.03
2023-05-24T21:26:18.842Z,17.03
2023-05-24T21:28:48.113Z,16.95
2023-05-24T21:31:17.315Z,16.84
2023-05-24T21:33:46.568Z,16.75
2023-05-24T21:36:15.692Z,16.69
2023-05-24T21:38:45.052Z,16.70
2023-05-24T21:41:14.188Z,16.71
2023-05-24T21:43:43.287Z,16.74
2023-05-24T21:46:12.426Z,16.78
2023-05-24T21:48:41.640Z,16.82
2023-05-24T21:51:10.779Z,16.92
2023-05-24T21:53:39.837Z,16.98
2023-05-24T21:56:08.991Z,17.03
2023-05-24T21:58:38.321Z,17.06
2023-05-24T22:01:08.706Z,17.08
2023-05-24T22:03:38.558Z,17.11
2023-05-24T22:06:08.258Z,17.12
2023-05-24T22:08:37.486Z,17.12
2023-05-24T22:11:06.726Z,17.10
2023-05-24T22:13:35.941Z,17.02
2023-05-24T22:16:05.418Z,16.97
2023-05-24T22:18:34.482Z,16.83
2023-05-24T22:21:03.632Z,16.70
2023-05-24T22:23:33.408Z,16.58
2023-05-24T22:26:02.544Z,16.47
2023-05-24T22:28:51.420Z,16.33
2023-05-24T22:31:21.690Z,16.17
2023-05-24T22:33:51.178Z,16.08
2023-05-24T22:36:20.994Z,16.00
2023-05-24T22:38:50.166Z,15.98
2023-05-24T22:41:19.382Z,15.98
2023-05-24T22:43:48.518Z,15.98
2023-05-24T22:46:17.801Z,15.98
2023-05-24T22:48:49.917Z,15.98
2023-05-24T22:51:19.930Z,16.00
2023-05-24T22:53:49.182Z,16.01
2023-05-24T22:56:18.313Z,15.99
2023-05-24T22:58:47.387Z,15.94
2023-05-24T23:01:16.822Z,15.94
2023-05-24T23:03:46.028Z,15.97
2023-05-24T23:06:15.654Z,16.04
2023-05-24T23:08:44.715Z,16.09
2023-05-24T23:11:17.384Z,16.13
2023-05-24T23:13:46.587Z,16.23
2023-05-24T23:16:18.533Z,16.28
2023-05-24T23:18:47.708Z,16.33
2023-05-24T23:21:17.004Z,16.38
2023-05-24T23:23:46.265Z,16.43
2023-05-24T23:26:15.674Z,16.37
2023-05-24T23:28:45.024Z,16.36
2023-05-24T23:31:14.478Z,16.36
2023-05-24T23:33:43.641Z,16.36
2023-05-24T23:36:12.947Z,16.37
2023-05-24T23:38:42.240Z,16.41
2023-05-24T23:41:11.343Z,16.47
2023-05-24T23:43:40.627Z,16.45
2023-05-24T23:46:10.709Z,16.48
2023-05-24T23:48:39.849Z,16.56
2023-05-24T23:51:10.634Z,16.64
2023-05-24T23:53:39.836Z,16.64
2023-05-24T23:56:09.024Z,16.58
2023-05-24T23:58:38.298Z,16.52
